sensor_id;sensor_type;location;lat;lon;timestamp;P1;durP1;ratioP1;P2;durP2;ratioP2
53115;SDS011;39010;48.088;7.954;2022-07-29T00:01:00;6.82;;;4.80;;
53115;SDS011;39010;48.088;7.954;2022-07-29T00:03:27;9.13;;;4.63;;
53115;SDS011;39010;48.088;7.954;2022-07-29T00:05:53;6.78;;;5.07;;
53115;SDS011;39010;48.088;7.954;2022-07-29T00:08:20;9.43;;;5.50;;
53115;SDS011;39010;48.088;7.954;2022-07-29T00:10:47;7.45;;;4.95;;
53115;SDS011;39010;48.088;7.954;2022-07-29T00:13:14;8.15;;;5.13;;
53115;SDS011;39010;48.088;7.954;2022-07-29T00:15:40;8.07;;;5.15;;
53115;SDS011;39010;48.088;7.954;2022-07-29T00:18:07;8.40;;;5.00;;
53115;SDS011;39010;48.088;7.954;2022-07-29T00:20:33;9.93;;;5.00;;
53115;SDS011;39010;48.088;7.954;2022-07-29T00:25:26;7.50;;;5.03;;
53115;SDS011;39010;48.088;7.954;2022-07-29T00:27:53;9.57;;;5.20;;
53115;SDS011;39010;48.088;7.954;2022-07-29T00:30:20;9.50;;;5.28;;
53115;SDS011;39010;48.088;7.954;2022-07-29T00:32:46;7.70;;;4.85;;
53115;SDS011;39010;48.088;7.954;2022-07-29T00:37:58;6.72;;;4.80;;
53115;SDS011;39010;48.088;7.954;2022-07-29T00:40:27;5.97;;;4.63;;
53115;SDS011;39010;48.088;7.954;2022-07-29T00:42:54;8.00;;;4.97;;
53115;SDS011;39010;48.088;7.954;2022-07-29T00:45:20;9.50;;;5.50;;
53115;SDS011;39010;48.088;7.954;2022-07-29T00:47:48;7.93;;;4.90;;
53115;SDS011;39010;48.088;7.954;2022-07-29T00:50:15;9.43;;;5.55;;
53115;SDS011;39010;48.088;7.954;2022-07-29T00:52:42;8.30;;;5.40;;
53115;SDS011;39010;48.088;7.954;2022-07-29T00:55:09;7.03;;;5.10;;
53115;SDS011;39010;48.088;7.954;2022-07-29T00:57:40;6.95;;;4.82;;
53115;SDS011;39010;48.088;7.954;2022-07-29T01:00:09;9.45;;;5.38;;
53115;SDS011;39010;48.088;7.954;2022-07-29T01:02:38;6.85;;;4.97;;
53115;SDS011;39010;48.088;7.954;2022-07-29T01:05:05;8.45;;;5.35;;
53115;SDS011;39010;48.088;7.954;2022-07-29T01:07:32;7.45;;;5.38;;
53115;SDS011;39010;48.088;7.954;2022-07-29T01:10:01;7.22;;;5.47;;
53115;SDS011;39010;48.088;7.954;2022-07-29T01:12:33;8.73;;;5.82;;
53115;SDS011;39010;48.088;7.954;2022-07-29T01:15:02;7.55;;;5.50;;
53115;SDS011;39010;48.088;7.954;2022-07-29T01:17:36;8.88;;;5.55;;
53115;SDS011;39010;48.088;7.954;2022-07-29T01:26:11;9.00;;;5.90;;
53115;SDS011;39010;48.088;7.954;2022-07-29T01:28:54;6.80;;;5.63;;
53115;SDS011;39010;48.088;7.954;2022-07-29T01:34:05;15.95;;;6.35;;
53115;SDS011;39010;48.088;7.954;2022-07-29T01:36:43;11.55;;;5.90;;
53115;SDS011;39010;48.088;7.954;2022-07-29T01:39:27;7.82;;;5.85;;
53115;SDS011;39010;48.088;7.954;2022-07-29T01:42:05;7.32;;;5.70;;
53115;SDS011;39010;48.088;7.954;2022-07-29T01:44:41;7.88;;;5.55;;
53115;SDS011;39010;48.088;7.954;2022-07-29T01:50:38;11.30;;;5.90;;
53115;SDS011;39010;48.088;7.954;2022-07-29T01:53:09;10.35;;;6.20;;
53115;SDS011;39010;48.088;7.954;2022-07-29T01:55:39;9.02;;;5.60;;
53115;SDS011;39010;48.088;7.954;2022-07-29T01:58:08;8.70;;;5.68;;
53115;SDS011;39010;48.088;7.954;2022-07-29T02:00:36;9.45;;;5.90;;
53115;SDS011;39010;48.088;7.954;2022-07-29T02:03:09;8.50;;;5.70;;
53115;SDS011;39010;48.088;7.954;2022-07-29T02:05:38;7.40;;;5.72;;
53115;SDS011;39010;48.088;7.954;2022-07-29T02:08:08;9.43;;;6.18;;
53115;SDS011;39010;48.088;7.954;2022-07-29T02:24:24;8.32;;;6.07;;
53115;SDS011;39010;48.088;7.954;2022-07-29T02:26:51;9.65;;;6.57;;
53115;SDS011;39010;48.088;7.954;2022-07-29T02:29:21;9.50;;;5.88;;
53115;SDS011;39010;48.088;7.954;2022-07-29T02:31:50;9.35;;;5.63;;
53115;SDS011;39010;48.088;7.954;2022-07-29T02:34:18;8.25;;;6.40;;
53115;SDS011;39010;48.088;7.954;2022-07-29T02:36:47;7.63;;;5.57;;
53115;SDS011;39010;48.088;7.954;2022-07-29T02:39:15;10.23;;;6.00;;
53115;SDS011;39010;48.088;7.954;2022-07-29T02:41:44;8.20;;;5.72;;
53115;SDS011;39010;48.088;7.954;2022-07-29T02:44:14;9.73;;;6.15;;
53115;SDS011;39010;48.088;7.954;2022-07-29T02:46:50;9.23;;;6.45;;
53115;SDS011;39010;48.088;7.954;2022-07-29T02:49:39;9.20;;;5.75;;
53115;SDS011;39010;48.088;7.954;2022-07-29T02:52:16;9.23;;;6.13;;
53115;SDS011;39010;48.088;7.954;2022-07-29T02:54:49;8.43;;;5.75;;
53115;SDS011;39010;48.088;7.954;2022-07-29T02:57:32;9.82;;;5.75;;
53115;SDS011;39010;48.088;7.954;2022-07-29T03:00:20;7.97;;;6.03;;
53115;SDS011;39010;48.088;7.954;2022-07-29T03:02:50;9.52;;;5.82;;
53115;SDS011;39010;48.088;7.954;2022-07-29T03:05:20;9.60;;;5.60;;
53115;SDS011;39010;48.088;7.954;2022-07-29T03:08:03;8.65;;;5.55;;
53115;SDS011;39010;48.088;7.954;2022-07-29T03:10:31;8.20;;;5.70;;
53115;SDS011;39010;48.088;7.954;2022-07-29T03:12:59;9.57;;;5.68;;
53115;SDS011;39010;48.088;7.954;2022-07-29T03:15:26;10.48;;;6.07;;
53115;SDS011;39010;48.088;7.954;2022-07-29T03:17:53;13.23;;;6.80;;
53115;SDS011;39010;48.088;7.954;2022-07-29T03:20:21;8.75;;;6.07;;
53115;SDS011;39010;48.088;7.954;2022-07-29T03:22:48;9.80;;;6.28;;
53115;SDS011;39010;48.088;7.954;2022-07-29T03:25:15;9.77;;;6.00;;
53115;SDS011;39010;48.088;7.954;2022-07-29T03:27:43;8.45;;;5.65;;
53115;SDS011;39010;48.088;7.954;2022-07-29T03:30:10;7.93;;;6.18;;
53115;SDS011;39010;48.088;7.954;2022-07-29T03:32:47;11.80;;;6.20;;
53115;SDS011;39010;48.088;7.954;2022-07-29T03:35:14;9.30;;;6.15;;
53115;SDS011;39010;48.088;7.954;2022-07-29T03:37:43;7.72;;;6.32;;
53115;SDS011;39010;48.088;7.954;2022-07-29T03:40:11;8.57;;;6.38;;
53115;SDS011;39010;48.088;7.954;2022-07-29T03:42:43;9.13;;;6.22;;
53115;SDS011;39010;48.088;7.954;2022-07-29T03:45:13;8.90;;;6.20;;
53115;SDS011;39010;48.088;7.954;2022-07-29T03:47:48;8.55;;;6.28;;
53115;SDS011;39010;48.088;7.954;2022-07-29T03:50:26;7.70;;;6.13;;
53115;SDS011;39010;48.088;7.954;2022-07-29T03:52:56;8.05;;;6.35;;
53115;SDS011;39010;48.088;7.954;2022-07-29T03:55:23;8.13;;;6.03;;
53115;SDS011;39010;48.088;7.954;2022-07-29T03:57:51;9.30;;;6.20;;
53115;SDS011;39010;48.088;7.954;2022-07-29T04:00:18;7.30;;;5.53;;
53115;SDS011;39010;48.088;7.954;2022-07-29T04:02:45;8.55;;;5.78;;
53115;SDS011;39010;48.088;7.954;2022-07-29T04:05:14;9.80;;;6.35;;
53115;SDS011;39010;48.088;7.954;2022-07-29T04:07:45;8.05;;;5.88;;
53115;SDS011;39010;48.088;7.954;2022-07-29T04:10:14;8.70;;;5.80;;
53115;SDS011;39010;48.088;7.954;2022-07-29T04:12:42;8.52;;;5.72;;
53115;SDS011;39010;48.088;7.954;2022-07-29T04:15:09;8.77;;;6.03;;
53115;SDS011;39010;48.088;7.954;2022-07-29T04:17:36;8.00;;;5.72;;
53115;SDS011;39010;48.088;7.954;2022-07-29T04:20:04;10.13;;;6.22;;
53115;SDS011;39010;48.088;7.954;2022-07-29T04:22:31;8.73;;;5.70;;
53115;SDS011;39010;48.088;7.954;2022-07-29T04:27:29;10.05;;;5.97;;
53115;SDS011;39010;48.088;7.954;2022-07-29T04:32:23;11.48;;;6.13;;
53115;SDS011;39010;48.088;7.954;2022-07-29T04:34:50;9.02;;;6.18;;
53115;SDS011;39010;48.088;7.954;2022-07-29T04:39:43;7.88;;;5.55;;
53115;SDS011;39010;48.088;7.954;2022-07-29T04:44:36;11.05;;;5.47;;
53115;SDS011;39010;48.088;7.954;2022-07-29T04:47:08;8.57;;;5.88;;
53115;SDS011;39010;48.088;7.954;2022-07-29T04:49:37;8.35;;;6.00;;
53115;SDS011;39010;48.088;7.954;2022-07-29T04:52:04;9.68;;;5.78;;
53115;SDS011;39010;48.088;7.954;2022-07-29T04:54:32;7.88;;;5.90;;
53115;SDS011;39010;48.088;7.954;2022-07-29T04:56:58;7.85;;;5.95;;
53115;SDS011;39010;48.088;7.954;2022-07-29T05:01:52;10.45;;;6.50;;
53115;SDS011;39010;48.088;7.954;2022-07-29T05:04:19;9.00;;;5.90;;
53115;SDS011;39010;48.088;7.954;2022-07-29T05:06:46;10.18;;;6.50;;
53115;SDS011;39010;48.088;7.954;2022-07-29T05:11:39;7.45;;;5.47;;
53115;SDS011;39010;48.088;7.954;2022-07-29T05:14:05;7.63;;;5.82;;
53115;SDS011;39010;48.088;7.954;2022-07-29T05:18:59;8.88;;;5.65;;
53115;SDS011;39010;48.088;7.954;2022-07-29T05:21:26;9.43;;;5.47;;
53115;SDS011;39010;48.088;7.954;2022-07-29T05:26:18;8.23;;;5.82;;
53115;SDS011;39010;48.088;7.954;2022-07-29T05:31:12;9.20;;;5.60;;
53115;SDS011;39010;48.088;7.954;2022-07-29T05:33:40;9.13;;;5.85;;
53115;SDS011;39010;48.088;7.954;2022-07-29T05:36:07;9.95;;;6.10;;
53115;SDS011;39010;48.088;7.954;2022-07-29T05:38:34;7.65;;;5.43;;
53115;SDS011;39010;48.088;7.954;2022-07-29T05:41:02;7.43;;;5.50;;
53115;SDS011;39010;48.088;7.954;2022-07-29T05:45:55;6.53;;;4.80;;
53115;SDS011;39010;48.088;7.954;2022-07-29T05:48:22;10.98;;;5.90;;
53115;SDS011;39010;48.088;7.954;2022-07-29T05:50:49;8.35;;;5.30;;
53115;SDS011;39010;48.088;7.954;2022-07-29T05:55:46;8.43;;;5.30;;
53115;SDS011;39010;48.088;7.954;2022-07-29T05:58:13;11.25;;;5.47;;
53115;SDS011;39010;48.088;7.954;2022-07-29T06:03:06;8.77;;;5.20;;
53115;SDS011;39010;48.088;7.954;2022-07-29T06:05:33;12.15;;;5.63;;
53115;SDS011;39010;48.088;7.954;2022-07-29T06:10:26;7.23;;;5.07;;
53115;SDS011;39010;48.088;7.954;2022-07-29T06:12:53;8.50;;;5.65;;
53115;SDS011;39010;48.088;7.954;2022-07-29T06:15:19;8.35;;;5.13;;
53115;SDS011;39010;48.088;7.954;2022-07-29T06:17:46;7.43;;;5.03;;
53115;SDS011;39010;48.088;7.954;2022-07-29T06:20:27;9.55;;;4.80;;
53115;SDS011;39010;48.088;7.954;2022-07-29T06:22:56;8.30;;;5.30;;
53115;SDS011;39010;48.088;7.954;2022-07-29T06:25:23;7.68;;;5.22;;
53115;SDS011;39010;48.088;7.954;2022-07-29T06:27:49;6.65;;;4.75;;
53115;SDS011;39010;48.088;7.954;2022-07-29T06:30:16;6.00;;;5.00;;
53115;SDS011;39010;48.088;7.954;2022-07-29T06:32:42;8.00;;;4.97;;
53115;SDS011;39010;48.088;7.954;2022-07-29T06:35:09;7.75;;;4.97;;
53115;SDS011;39010;48.088;7.954;2022-07-29T06:37:56;9.05;;;4.80;;
53115;SDS011;39010;48.088;7.954;2022-07-29T06:40:25;6.70;;;4.57;;
53115;SDS011;39010;48.088;7.954;2022-07-29T06:43:10;9.00;;;5.05;;
53115;SDS011;39010;48.088;7.954;2022-07-29T06:45:37;11.18;;;4.60;;
53115;SDS011;39010;48.088;7.954;2022-07-29T06:48:07;8.80;;;4.75;;
53115;SDS011;39010;48.088;7.954;2022-07-29T06:50:34;7.63;;;4.78;;
53115;SDS011;39010;48.088;7.954;2022-07-29T06:53:00;7.70;;;4.18;;
53115;SDS011;39010;48.088;7.954;2022-07-29T06:55:27;7.13;;;4.75;;
53115;SDS011;39010;48.088;7.954;2022-07-29T06:57:53;8.13;;;4.60;;
53115;SDS011;39010;48.088;7.954;2022-07-29T07:00:20;5.28;;;4.20;;
53115;SDS011;39010;48.088;7.954;2022-07-29T07:02:47;7.80;;;4.30;;
53115;SDS011;39010;48.088;7.954;2022-07-29T07:05:14;6.03;;;4.25;;
53115;SDS011;39010;48.088;7.954;2022-07-29T07:07:40;7.43;;;4.28;;
53115;SDS011;39010;48.088;7.954;2022-07-29T07:10:07;7.68;;;3.80;;
53115;SDS011;39010;48.088;7.954;2022-07-29T07:12:34;11.30;;;4.18;;
53115;SDS011;39010;48.088;7.954;2022-07-29T07:15:00;6.00;;;3.72;;
53115;SDS011;39010;48.088;7.954;2022-07-29T07:17:27;7.55;;;4.03;;
53115;SDS011;39010;48.088;7.954;2022-07-29T07:19:53;8.10;;;4.20;;
53115;SDS011;39010;48.088;7.954;2022-07-29T07:22:20;5.57;;;3.97;;
53115;SDS011;39010;48.088;7.954;2022-07-29T07:24:47;8.05;;;4.30;;
53115;SDS011;39010;48.088;7.954;2022-07-29T07:27:14;6.57;;;4.20;;
53115;SDS011;39010;48.088;7.954;2022-07-29T07:29:40;7.30;;;3.60;;
53115;SDS011;39010;48.088;7.954;2022-07-29T07:32:09;6.97;;;4.00;;
53115;SDS011;39010;48.088;7.954;2022-07-29T07:34:36;7.63;;;4.38;;
53115;SDS011;39010;48.088;7.954;2022-07-29T07:37:04;7.55;;;4.07;;
53115;SDS011;39010;48.088;7.954;2022-07-29T07:39:31;7.57;;;4.20;;
53115;SDS011;39010;48.088;7.954;2022-07-29T07:41:58;8.07;;;3.97;;
53115;SDS011;39010;48.088;7.954;2022-07-29T07:44:24;6.25;;;4.40;;
53115;SDS011;39010;48.088;7.954;2022-07-29T07:46:51;9.05;;;4.25;;
53115;SDS011;39010;48.088;7.954;2022-07-29T07:49:20;6.95;;;3.88;;
53115;SDS011;39010;48.088;7.954;2022-07-29T07:51:47;6.90;;;3.80;;
53115;SDS011;39010;48.088;7.954;2022-07-29T07:54:16;10.68;;;4.43;;
53115;SDS011;39010;48.088;7.954;2022-07-29T07:56:45;6.82;;;3.53;;
53115;SDS011;39010;48.088;7.954;2022-07-29T07:59:18;7.45;;;4.15;;
53115;SDS011;39010;48.088;7.954;2022-07-29T08:01:44;7.47;;;4.00;;
53115;SDS011;39010;48.088;7.954;2022-07-29T08:04:21;8.13;;;4.07;;
53115;SDS011;39010;48.088;7.954;2022-07-29T08:06:54;9.05;;;4.20;;
53115;SDS011;39010;48.088;7.954;2022-07-29T08:09:21;9.27;;;3.75;;
53115;SDS011;39010;48.088;7.954;2022-07-29T08:11:56;11.55;;;4.18;;
53115;SDS011;39010;48.088;7.954;2022-07-29T08:14:24;7.13;;;4.03;;
53115;SDS011;39010;48.088;7.954;2022-07-29T08:16:51;13.30;;;4.10;;
53115;SDS011;39010;48.088;7.954;2022-07-29T08:19:18;9.10;;;3.67;;
53115;SDS011;39010;48.088;7.954;2022-07-29T08:21:44;7.45;;;3.50;;
53115;SDS011;39010;48.088;7.954;2022-07-29T08:24:11;7.00;;;3.50;;
53115;SDS011;39010;48.088;7.954;2022-07-29T08:26:56;8.07;;;4.38;;
53115;SDS011;39010;48.088;7.954;2022-07-29T08:29:23;8.68;;;4.03;;
53115;SDS011;39010;48.088;7.954;2022-07-29T08:31:49;10.35;;;4.35;;
53115;SDS011;39010;48.088;7.954;2022-07-29T08:34:16;6.63;;;4.00;;
53115;SDS011;39010;48.088;7.954;2022-07-29T08:36:43;8.02;;;4.03;;
53115;SDS011;39010;48.088;7.954;2022-07-29T08:39:15;8.02;;;3.97;;
53115;SDS011;39010;48.088;7.954;2022-07-29T08:41:41;6.25;;;3.50;;
53115;SDS011;39010;48.088;7.954;2022-07-29T08:44:22;8.48;;;3.90;;
53115;SDS011;39010;48.088;7.954;2022-07-29T08:46:56;7.85;;;3.90;;
53115;SDS011;39010;48.088;7.954;2022-07-29T08:49:23;7.00;;;3.72;;
53115;SDS011;39010;48.088;7.954;2022-07-29T08:51:50;7.85;;;3.83;;
53115;SDS011;39010;48.088;7.954;2022-07-29T08:54:18;10.18;;;3.42;;
53115;SDS011;39010;48.088;7.954;2022-07-29T08:56:48;7.82;;;3.53;;
53115;SDS011;39010;48.088;7.954;2022-07-29T08:59:17;5.63;;;3.30;;
53115;SDS011;39010;48.088;7.954;2022-07-29T09:01:48;6.53;;;3.80;;
53115;SDS011;39010;48.088;7.954;2022-07-29T09:04:19;6.85;;;3.47;;
53115;SDS011;39010;48.088;7.954;2022-07-29T09:06:50;10.00;;;3.58;;
53115;SDS011;39010;48.088;7.954;2022-07-29T09:09:17;6.60;;;3.75;;
53115;SDS011;39010;48.088;7.954;2022-07-29T09:11:44;8.27;;;3.70;;
53115;SDS011;39010;48.088;7.954;2022-07-29T09:14:12;7.65;;;3.45;;
53115;SDS011;39010;48.088;7.954;2022-07-29T09:16:49;6.20;;;3.80;;
53115;SDS011;39010;48.088;7.954;2022-07-29T09:19:20;6.13;;;3.33;;
53115;SDS011;39010;48.088;7.954;2022-07-29T09:21:51;5.40;;;3.80;;
53115;SDS011;39010;48.088;7.954;2022-07-29T09:24:26;6.65;;;3.70;;
53115;SDS011;39010;48.088;7.954;2022-07-29T09:27:23;8.52;;;3.75;;
53115;SDS011;39010;48.088;7.954;2022-07-29T09:29:56;7.18;;;3.85;;
53115;SDS011;39010;48.088;7.954;2022-07-29T09:32:23;10.52;;;3.70;;
53115;SDS011;39010;48.088;7.954;2022-07-29T09:34:50;10.43;;;3.60;;
53115;SDS011;39010;48.088;7.954;2022-07-29T09:37:27;9.77;;;3.70;;
53115;SDS011;39010;48.088;7.954;2022-07-29T09:39:54;7.63;;;3.83;;
53115;SDS011;39010;48.088;7.954;2022-07-29T09:42:30;15.38;;;4.72;;
53115;SDS011;39010;48.088;7.954;2022-07-29T09:44:58;10.50;;;3.90;;
53115;SDS011;39010;48.088;7.954;2022-07-29T09:47:27;10.77;;;3.90;;
53115;SDS011;39010;48.088;7.954;2022-07-29T09:50:07;7.55;;;3.55;;
53115;SDS011;39010;48.088;7.954;2022-07-29T09:52:41;10.82;;;4.25;;
53115;SDS011;39010;48.088;7.954;2022-07-29T09:55:11;11.32;;;4.22;;
53115;SDS011;39010;48.088;7.954;2022-07-29T09:57:43;8.73;;;3.65;;
53115;SDS011;39010;48.088;7.954;2022-07-29T10:00:18;10.90;;;3.88;;
53115;SDS011;39010;48.088;7.954;2022-07-29T10:02:46;7.72;;;3.88;;
53115;SDS011;39010;48.088;7.954;2022-07-29T10:05:21;7.28;;;3.45;;
53115;SDS011;39010;48.088;7.954;2022-07-29T10:07:50;5.40;;;3.60;;
53115;SDS011;39010;48.088;7.954;2022-07-29T10:13:00;5.82;;;3.63;;
53115;SDS011;39010;48.088;7.954;2022-07-29T10:15:35;6.72;;;3.30;;
53115;SDS011;39010;48.088;7.954;2022-07-29T10:18:05;6.50;;;4.47;;
53115;SDS011;39010;48.088;7.954;2022-07-29T10:20:37;5.32;;;3.63;;
53115;SDS011;39010;48.088;7.954;2022-07-29T10:23:04;7.72;;;3.70;;
53115;SDS011;39010;48.088;7.954;2022-07-29T10:25:31;7.28;;;3.58;;
53115;SDS011;39010;48.088;7.954;2022-07-29T10:27:58;8.07;;;3.78;;
53115;SDS011;39010;48.088;7.954;2022-07-29T10:30:25;7.00;;;3.85;;
53115;SDS011;39010;48.088;7.954;2022-07-29T10:46:36;8.50;;;3.30;;
53115;SDS011;39010;48.088;7.954;2022-07-29T10:49:13;6.47;;;3.20;;
53115;SDS011;39010;48.088;7.954;2022-07-29T10:57:19;5.40;;;3.22;;
53115;SDS011;39010;48.088;7.954;2022-07-29T11:02:45;6.70;;;3.10;;
53115;SDS011;39010;48.088;7.954;2022-07-29T11:05:15;7.70;;;3.72;;
53115;SDS011;39010;48.088;7.954;2022-07-29T11:10:47;8.55;;;3.47;;
53115;SDS011;39010;48.088;7.954;2022-07-29T11:16:19;6.47;;;3.13;;
53115;SDS011;39010;48.088;7.954;2022-07-29T11:21:40;6.90;;;3.05;;
53115;SDS011;39010;48.088;7.954;2022-07-29T11:24:25;7.03;;;3.35;;
53115;SDS011;39010;48.088;7.954;2022-07-29T11:29:58;6.70;;;3.10;;
53115;SDS011;39010;48.088;7.954;2022-07-29T11:32:35;7.00;;;3.28;;
53115;SDS011;39010;48.088;7.954;2022-07-29T11:37:44;10.52;;;3.50;;
53115;SDS011;39010;48.088;7.954;2022-07-29T11:41:18;10.07;;;3.20;;
53115;SDS011;39010;48.088;7.954;2022-07-29T11:44:12;7.53;;;3.13;;
53115;SDS011;39010;48.088;7.954;2022-07-29T11:49:24;4.10;;;2.70;;
53115;SDS011;39010;48.088;7.954;2022-07-29T11:51:58;11.23;;;3.28;;
53115;SDS011;39010;48.088;7.954;2022-07-29T11:54:32;9.40;;;2.92;;
53115;SDS011;39010;48.088;7.954;2022-07-29T11:57:20;8.13;;;2.83;;
53115;SDS011;39010;48.088;7.954;2022-07-29T11:59:47;5.35;;;3.00;;
53115;SDS011;39010;48.088;7.954;2022-07-29T12:02:14;4.72;;;2.58;;
53115;SDS011;39010;48.088;7.954;2022-07-29T12:05:01;5.78;;;2.67;;
53115;SDS011;39010;48.088;7.954;2022-07-29T12:07:37;8.63;;;2.53;;
53115;SDS011;39010;48.088;7.954;2022-07-29T12:10:06;4.82;;;2.67;;
53115;SDS011;39010;48.088;7.954;2022-07-29T12:12:50;7.63;;;2.92;;
53115;SDS011;39010;48.088;7.954;2022-07-29T12:15:18;7.90;;;2.50;;
53115;SDS011;39010;48.088;7.954;2022-07-29T12:18:19;6.93;;;2.83;;
53115;SDS011;39010;48.088;7.954;2022-07-29T12:20:56;10.00;;;3.17;;
53115;SDS011;39010;48.088;7.954;2022-07-29T12:23:24;6.75;;;2.70;;
53115;SDS011;39010;48.088;7.954;2022-07-29T12:25:54;6.55;;;2.83;;
53115;SDS011;39010;48.088;7.954;2022-07-29T12:28:21;6.53;;;2.85;;
53115;SDS011;39010;48.088;7.954;2022-07-29T12:30:53;7.57;;;2.75;;
53115;SDS011;39010;48.088;7.954;2022-07-29T12:33:21;7.43;;;2.90;;
53115;SDS011;39010;48.088;7.954;2022-07-29T12:35:50;11.02;;;3.10;;
53115;SDS011;39010;48.088;7.954;2022-07-29T12:38:39;10.02;;;3.35;;
53115;SDS011;39010;48.088;7.954;2022-07-29T12:41:06;5.57;;;2.75;;
53115;SDS011;39010;48.088;7.954;2022-07-29T12:43:34;6.10;;;2.85;;
53115;SDS011;39010;48.088;7.954;2022-07-29T12:46:11;6.63;;;3.05;;
53115;SDS011;39010;48.088;7.954;2022-07-29T12:48:40;4.97;;;2.67;;
53115;SDS011;39010;48.088;7.954;2022-07-29T12:51:08;5.97;;;3.20;;
53115;SDS011;39010;48.088;7.954;2022-07-29T12:53:38;5.68;;;3.05;;
53115;SDS011;39010;48.088;7.954;2022-07-29T12:56:05;6.05;;;3.00;;
53115;SDS011;39010;48.088;7.954;2022-07-29T12:58:52;4.80;;;3.28;;
53115;SDS011;39010;48.088;7.954;2022-07-29T13:01:18;7.95;;;3.55;;
53115;SDS011;39010;48.088;7.954;2022-07-29T13:03:47;5.82;;;3.17;;
53115;SDS011;39010;48.088;7.954;2022-07-29T13:06:30;10.45;;;3.60;;
53115;SDS011;39010;48.088;7.954;2022-07-29T13:09:08;6.70;;;3.45;;
53115;SDS011;39010;48.088;7.954;2022-07-29T13:11:41;6.93;;;3.40;;
53115;SDS011;39010;48.088;7.954;2022-07-29T13:22:17;8.43;;;3.40;;
53115;SDS011;39010;48.088;7.954;2022-07-29T13:24:57;10.88;;;3.47;;
53115;SDS011;39010;48.088;7.954;2022-07-29T13:27:26;8.93;;;3.30;;
53115;SDS011;39010;48.088;7.954;2022-07-29T13:29:58;6.85;;;3.20;;
53115;SDS011;39010;48.088;7.954;2022-07-29T13:32:28;6.90;;;3.05;;
53115;SDS011;39010;48.088;7.954;2022-07-29T13:34:56;6.93;;;3.30;;
53115;SDS011;39010;48.088;7.954;2022-07-29T13:37:23;6.47;;;3.20;;
53115;SDS011;39010;48.088;7.954;2022-07-29T13:39:50;5.38;;;2.92;;
53115;SDS011;39010;48.088;7.954;2022-07-29T13:42:19;8.07;;;3.40;;
53115;SDS011;39010;48.088;7.954;2022-07-29T13:44:46;10.15;;;5.65;;
53115;SDS011;39010;48.088;7.954;2022-07-29T13:47:14;6.10;;;3.28;;
53115;SDS011;39010;48.088;7.954;2022-07-29T13:49:42;8.52;;;3.00;;
53115;SDS011;39010;48.088;7.954;2022-07-29T13:52:09;5.57;;;3.00;;
53115;SDS011;39010;48.088;7.954;2022-07-29T13:54:36;7.47;;;2.97;;
53115;SDS011;39010;48.088;7.954;2022-07-29T13:57:08;4.82;;;2.75;;
53115;SDS011;39010;48.088;7.954;2022-07-29T13:59:36;6.32;;;3.15;;
53115;SDS011;39010;48.088;7.954;2022-07-29T14:02:03;7.68;;;2.97;;
53115;SDS011;39010;48.088;7.954;2022-07-29T14:04:29;8.40;;;2.80;;
53115;SDS011;39010;48.088;7.954;2022-07-29T14:20:30;4.25;;;2.72;;
53115;SDS011;39010;48.088;7.954;2022-07-29T14:22:57;5.88;;;2.53;;
53115;SDS011;39010;48.088;7.954;2022-07-29T14:25:24;9.05;;;2.70;;
53115;SDS011;39010;48.088;7.954;2022-07-29T14:27:50;5.63;;;2.53;;
53115;SDS011;39010;48.088;7.954;2022-07-29T14:30:19;6.95;;;2.47;;
53115;SDS011;39010;48.088;7.954;2022-07-29T14:32:46;5.97;;;2.55;;
53115;SDS011;39010;48.088;7.954;2022-07-29T14:35:13;4.72;;;2.50;;
53115;SDS011;39010;48.088;7.954;2022-07-29T14:37:39;12.45;;;3.03;;
53115;SDS011;39010;48.088;7.954;2022-07-29T14:40:06;5.43;;;2.60;;
53115;SDS011;39010;48.088;7.954;2022-07-29T14:42:34;8.05;;;2.50;;
53115;SDS011;39010;48.088;7.954;2022-07-29T14:45:02;7.82;;;2.63;;
53115;SDS011;39010;48.088;7.954;2022-07-29T14:47:30;7.05;;;2.90;;
53115;SDS011;39010;48.088;7.954;2022-07-29T14:49:56;7.18;;;2.67;;
53115;SDS011;39010;48.088;7.954;2022-07-29T14:52:22;6.15;;;2.90;;
53115;SDS011;39010;48.088;7.954;2022-07-29T14:54:49;5.90;;;3.00;;
53115;SDS011;39010;48.088;7.954;2022-07-29T14:57:16;3.78;;;2.38;;
53115;SDS011;39010;48.088;7.954;2022-07-29T14:59:42;4.68;;;2.47;;
53115;SDS011;39010;48.088;7.954;2022-07-29T15:02:09;4.82;;;2.17;;
53115;SDS011;39010;48.088;7.954;2022-07-29T15:04:36;6.22;;;2.35;;
53115;SDS011;39010;48.088;7.954;2022-07-29T15:07:03;7.00;;;2.42;;
53115;SDS011;39010;48.088;7.954;2022-07-29T15:09:29;5.72;;;2.40;;
53115;SDS011;39010;48.088;7.954;2022-07-29T15:11:56;6.95;;;2.38;;
53115;SDS011;39010;48.088;7.954;2022-07-29T15:14:23;5.22;;;2.42;;
53115;SDS011;39010;48.088;7.954;2022-07-29T15:16:50;5.70;;;2.20;;
53115;SDS011;39010;48.088;7.954;2022-07-29T15:19:18;4.78;;;2.55;;
53115;SDS011;39010;48.088;7.954;2022-07-29T15:21:45;5.03;;;2.65;;
53115;SDS011;39010;48.088;7.954;2022-07-29T15:24:25;5.38;;;2.33;;
53115;SDS011;39010;48.088;7.954;2022-07-29T15:26:53;4.75;;;2.30;;
53115;SDS011;39010;48.088;7.954;2022-07-29T15:29:19;5.00;;;2.35;;
53115;SDS011;39010;48.088;7.954;2022-07-29T15:31:46;3.55;;;1.83;;
53115;SDS011;39010;48.088;7.954;2022-07-29T15:34:13;6.80;;;2.33;;
53115;SDS011;39010;48.088;7.954;2022-07-29T15:36:39;5.45;;;2.30;;
53115;SDS011;39010;48.088;7.954;2022-07-29T15:39:21;6.10;;;2.13;;
53115;SDS011;39010;48.088;7.954;2022-07-29T15:41:48;7.72;;;2.40;;
53115;SDS011;39010;48.088;7.954;2022-07-29T15:44:15;7.03;;;2.35;;
53115;SDS011;39010;48.088;7.954;2022-07-29T15:46:42;3.38;;;1.98;;
53115;SDS011;39010;48.088;7.954;2022-07-29T15:49:28;4.82;;;1.95;;
53115;SDS011;39010;48.088;7.954;2022-07-29T15:52:14;3.75;;;1.83;;
53115;SDS011;39010;48.088;7.954;2022-07-29T15:54:43;6.18;;;2.05;;
53115;SDS011;39010;48.088;7.954;2022-07-29T15:57:09;6.72;;;2.08;;
53115;SDS011;39010;48.088;7.954;2022-07-29T15:59:36;3.65;;;2.05;;
53115;SDS011;39010;48.088;7.954;2022-07-29T16:02:03;4.15;;;2.10;;
53115;SDS011;39010;48.088;7.954;2022-07-29T16:04:30;3.13;;;1.83;;
53115;SDS011;39010;48.088;7.954;2022-07-29T16:06:58;3.33;;;1.92;;
53115;SDS011;39010;48.088;7.954;2022-07-29T16:09:26;4.45;;;1.90;;
53115;SDS011;39010;48.088;7.954;2022-07-29T16:11:53;6.05;;;2.00;;
53115;SDS011;39010;48.088;7.954;2022-07-29T16:14:21;5.05;;;2.15;;
53115;SDS011;39010;48.088;7.954;2022-07-29T16:16:48;4.90;;;2.08;;
53115;SDS011;39010;48.088;7.954;2022-07-29T16:19:14;5.65;;;2.25;;
53115;SDS011;39010;48.088;7.954;2022-07-29T16:21:41;3.38;;;1.73;;
53115;SDS011;39010;48.088;7.954;2022-07-29T16:24:07;6.18;;;2.88;;
53115;SDS011;39010;48.088;7.954;2022-07-29T16:26:34;4.80;;;2.28;;
53115;SDS011;39010;48.088;7.954;2022-07-29T16:29:01;4.75;;;1.90;;
53115;SDS011;39010;48.088;7.954;2022-07-29T16:31:29;4.47;;;2.13;;
53115;SDS011;39010;48.088;7.954;2022-07-29T16:33:55;6.10;;;2.15;;
53115;SDS011;39010;48.088;7.954;2022-07-29T16:36:22;5.00;;;2.42;;
53115;SDS011;39010;48.088;7.954;2022-07-29T16:38:49;2.33;;;1.70;;
53115;SDS011;39010;48.088;7.954;2022-07-29T16:41:16;4.90;;;1.80;;
53115;SDS011;39010;48.088;7.954;2022-07-29T16:43:42;5.60;;;1.70;;
53115;SDS011;39010;48.088;7.954;2022-07-29T16:46:09;14.60;;;2.00;;
53115;SDS011;39010;48.088;7.954;2022-07-29T16:48:44;6.22;;;2.10;;
53115;SDS011;39010;48.088;7.954;2022-07-29T16:51:10;4.53;;;1.67;;
53115;SDS011;39010;48.088;7.954;2022-07-29T16:53:40;3.13;;;1.80;;
53115;SDS011;39010;48.088;7.954;2022-07-29T16:56:07;5.25;;;1.90;;
53115;SDS011;39010;48.088;7.954;2022-07-29T16:58:38;6.63;;;2.00;;
53115;SDS011;39010;48.088;7.954;2022-07-29T17:01:09;2.70;;;1.70;;
53115;SDS011;39010;48.088;7.954;2022-07-29T17:03:36;6.60;;;1.90;;
53115;SDS011;39010;48.088;7.954;2022-07-29T17:06:25;4.32;;;2.10;;
53115;SDS011;39010;48.088;7.954;2022-07-29T17:08:54;4.43;;;2.15;;